createdAt,value
2022-11-09T00:02:05.599Z,60.58
2022-11-09T00:04:36.257Z,60.63
2022-11-09T00:07:07.155Z,60.63
2022-11-09T00:09:37.553Z,60.61
2022-11-09T00:12:09.270Z,59.92
2022-11-09T00:14:39.801Z,58.13
2022-11-09T00:17:10.736Z,58.45
2022-11-09T00:19:41.271Z,63.38
2022-11-09T00:22:12.479Z,66.68
2022-11-09T00:24:43.087Z,66.02
2022-11-09T00:27:17.644Z,63.45
2022-11-09T00:29:48.808Z,62.30
2022-11-09T00:32:26.643Z,60.96
2022-11-09T00:34:58.472Z,61.77
2022-11-09T00:37:30.388Z,61.76
2022-11-09T00:40:01.057Z,62.19
2022-11-09T00:42:31.695Z,61.28
2022-11-09T00:45:02.360Z,59.72
2022-11-09T00:47:33.255Z,59.78
2022-11-09T00:50:03.888Z,62.73
2022-11-09T00:52:34.720Z,64.56
2022-11-09T00:55:05.908Z,62.83
2022-11-09T00:57:36.710Z,61.99
2022-11-09T01:00:08.858Z,61.76
2022-11-09T01:02:39.499Z,60.66
2022-11-09T01:05:10.403Z,60.14
2022-11-09T01:07:40.877Z,59.66
2022-11-09T01:10:11.699Z,57.65
2022-11-09T01:12:42.534Z,57.52
2022-11-09T01:15:13.170Z,61.33
2022-11-09T01:17:43.907Z,66.95
2022-11-09T01:20:14.739Z,67.16
2022-11-09T01:22:45.770Z,63.44
2022-11-09T01:25:16.876Z,62.43
2022-11-09T01:27:47.354Z,60.00
2022-11-09T01:30:18.014Z,58.66
2022-11-09T01:32:48.614Z,62.41
2022-11-09T01:35:18.983Z,66.84
2022-11-09T01:37:49.656Z,66.18
2022-11-09T01:40:20.294Z,64.86
2022-11-09T01:42:51.170Z,62.52
2022-11-09T01:45:26.634Z,59.35
2022-11-09T01:47:59.375Z,58.02
2022-11-09T01:50:32.949Z,61.36
2022-11-09T01:53:04.817Z,66.73
2022-11-09T01:55:35.542Z,67.38
2022-11-09T01:58:07.313Z,63.84
2022-11-09T02:00:39.487Z,60.84
2022-11-09T02:03:12.348Z,61.90
2022-11-09T02:05:43.501Z,60.71
2022-11-09T02:08:15.875Z,60.61
2022-11-09T02:10:48.541Z,60.15
2022-11-09T02:13:21.066Z,58.48
2022-11-09T02:15:52.135Z,62.60
2022-11-09T02:18:23.098Z,65.90
2022-11-09T02:20:54.725Z,64.24
2022-11-09T02:23:27.121Z,62.65
2022-11-09T02:25:59.800Z,61.83
2022-11-09T02:28:32.297Z,59.76
2022-11-09T02:31:03.986Z,58.40
2022-11-09T02:33:43.445Z,60.43
2022-11-09T02:36:14.247Z,66.15
2022-11-09T02:38:45.350Z,66.91
2022-11-09T02:41:15.926Z,64.26
2022-11-09T02:43:46.519Z,61.02
2022-11-09T02:46:23.631Z,59.66
2022-11-09T02:48:54.986Z,59.68
2022-11-09T02:51:25.663Z,57.31
2022-11-09T02:53:58.171Z,58.98
2022-11-09T02:56:28.780Z,64.07
2022-11-09T02:59:00.058Z,65.05
2022-11-09T03:01:30.855Z,62.76
2022-11-09T03:04:02.151Z,59.43
2022-11-09T03:06:35.802Z,60.74
2022-11-09T03:09:11.977Z,65.93
2022-11-09T03:11:43.404Z,66.04
2022-11-09T03:14:15.881Z,64.55
2022-11-09T03:16:51.634Z,63.40
2022-11-09T03:19:23.006Z,62.10
2022-11-09T03:21:55.057Z,59.29
2022-11-09T03:24:27.822Z,58.34
2022-11-09T03:26:59.932Z,60.79
2022-11-09T03:29:31.751Z,66.44
2022-11-09T03:32:02.372Z,66.20
2022-11-09T03:34:33.217Z,64.64
2022-11-09T03:37:03.994Z,64.41
2022-11-09T03:39:35.705Z,63.43
2022-11-09T03:42:06.476Z,62.56
2022-11-09T03:44:37.174Z,61.67
2022-11-09T03:47:08.121Z,58.68
2022-11-09T03:49:38.842Z,61.63
2022-11-09T03:52:09.269Z,65.72
2022-11-09T03:54:39.900Z,65.08
2022-11-09T03:57:10.583Z,63.78
2022-11-09T03:59:41.163Z,63.31
2022-11-09T04:02:12.233Z,62.41
2022-11-09T04:04:43.034Z,61.25
2022-11-09T04:07:13.965Z,61.11
2022-11-09T04:09:44.655Z,60.17
2022-11-09T04:12:15.541Z,59.60
2022-11-09T04:14:46.032Z,57.41
2022-11-09T04:17:16.528Z,60.64
2022-11-09T04:19:47.227Z,65.39
2022-11-09T04:22:17.933Z,66.12
2022-11-09T04:24:48.800Z,64.02
2022-11-09T04:27:21.799Z,62.43
2022-11-09T04:29:52.415Z,60.79
2022-11-09T04:32:22.907Z,59.51
2022-11-09T04:34:53.889Z,57.27
2022-11-09T04:37:24.674Z,60.34
2022-11-09T04:39:55.310Z,65.40
2022-11-09T04:42:25.840Z,66.14
2022-11-09T04:44:56.714Z,63.70
2022-11-09T04:47:28.735Z,61.40
2022-11-09T04:49:59.308Z,59.57
2022-11-09T04:52:29.939Z,57.92
2022-11-09T04:55:00.463Z,61.43
2022-11-09T04:57:31.099Z,65.94
2022-11-09T05:00:01.847Z,64.16
2022-11-09T05:02:32.559Z,58.30
2022-11-09T05:05:03.394Z,60.74
2022-11-09T05:07:33.972Z,65.13
2022-11-09T05:10:04.672Z,62.88
2022-11-09T05:12:35.439Z,60.16
2022-11-09T05:15:06.403Z,60.63
2022-11-09T05:17:36.956Z,60.38
2022-11-09T05:20:08.616Z,58.39
2022-11-09T05:22:59.705Z,62.96
2022-11-09T05:25:30.362Z,65.86
2022-11-09T05:28:01.222Z,62.00
2022-11-09T05:30:31.673Z,61.76
2022-11-09T05:33:02.452Z,59.66
2022-11-09T05:35:34.256Z,59.31
2022-11-09T05:38:04.941Z,65.72
2022-11-09T05:40:35.579Z,66.75
2022-11-09T05:43:06.307Z,62.23
2022-11-09T05:45:42.747Z,62.54
2022-11-09T05:48:14.744Z,61.75
2022-11-09T05:50:45.881Z,60.39
2022-11-09T05:53:21.096Z,60.34
2022-11-09T05:55:52.232Z,58.26
2022-11-09T05:58:23.096Z,59.96
2022-11-09T06:00:53.966Z,65.24
2022-11-09T06:03:24.562Z,65.53
2022-11-09T06:05:55.211Z,63.23
2022-11-09T06:08:25.980Z,61.89
2022-11-09T06:11:01.174Z,61.82
2022-11-09T06:13:31.836Z,60.46
2022-11-09T06:16:03.917Z,59.42
2022-11-09T06:18:35.358Z,58.92
2022-11-09T06:21:06.768Z,62.28
2022-11-09T06:23:37.595Z,64.34
2022-11-09T06:26:10.004Z,62.20
2022-11-09T06:28:41.496Z,60.36
2022-11-09T06:31:13.931Z,58.98
2022-11-09T06:33:44.595Z,61.92
2022-11-09T06:36:15.149Z,65.63
2022-11-09T06:38:45.748Z,64.10
2022-11-09T06:41:16.368Z,61.26
2022-11-09T06:43:47.214Z,59.94
2022-11-09T06:46:17.885Z,59.20
2022-11-09T06:48:53.404Z,61.94
2022-11-09T06:51:25.582Z,64.76
2022-11-09T06:53:56.332Z,62.62
2022-11-09T06:56:26.868Z,60.57
2022-11-09T06:58:57.579Z,59.48
2022-11-09T07:01:29.468Z,64.44
2022-11-09T07:04:00.233Z,65.06
2022-11-09T07:06:30.955Z,63.59
2022-11-09T07:09:02.112Z,60.80
2022-11-09T07:11:32.957Z,59.21
2022-11-09T07:14:04.134Z,62.26
2022-11-09T07:16:34.923Z,67.34
2022-11-09T07:19:05.710Z,65.23
2022-11-09T07:21:36.533Z,62.87
2022-11-09T07:24:08.257Z,59.56
2022-11-09T07:26:38.818Z,60.10
2022-11-09T07:29:09.605Z,65.36
2022-11-09T07:31:40.289Z,66.47
2022-11-09T07:34:10.930Z,64.91
2022-11-09T07:36:41.666Z,61.37
2022-11-09T07:39:12.118Z,58.69
2022-11-09T07:41:42.763Z,59.50
2022-11-09T07:44:14.942Z,62.72
2022-11-09T07:46:45.649Z,67.11
2022-11-09T07:49:17.007Z,65.87
2022-11-09T07:51:47.591Z,64.46
2022-11-09T07:54:18.535Z,63.01
2022-11-09T07:56:49.057Z,60.46
2022-11-09T07:59:19.786Z,59.98
2022-11-09T08:01:50.465Z,59.96
2022-11-09T08:04:21.357Z,57.77
2022-11-09T08:06:54.745Z,60.26
2022-11-09T08:09:25.742Z,63.79
2022-11-09T08:11:56.527Z,63.28
2022-11-09T08:14:27.148Z,60.90
2022-11-09T08:16:58.089Z,58.53
2022-11-09T08:19:28.926Z,60.48
2022-11-09T08:22:00.887Z,65.12
2022-11-09T08:24:31.761Z,62.66
2022-11-09T08:27:02.362Z,60.55
2022-11-09T08:29:33.083Z,58.93
2022-11-09T08:32:03.824Z,61.84
2022-11-09T08:34:34.753Z,64.06
2022-11-09T08:37:05.851Z,60.33
2022-11-09T08:39:36.531Z,59.80
2022-11-09T08:42:07.781Z,61.42
2022-11-09T08:44:38.717Z,65.28
2022-11-09T08:47:09.448Z,65.39
2022-11-09T08:49:40.072Z,61.74
2022-11-09T08:52:10.712Z,59.47
2022-11-09T08:54:41.336Z,60.75
2022-11-09T08:57:12.175Z,60.68
2022-11-09T08:59:42.806Z,64.48
2022-11-09T09:02:14.618Z,64.57
2022-11-09T09:04:45.249Z,62.47
2022-11-09T09:07:16.306Z,58.59
2022-11-09T09:09:47.123Z,55.51
2022-11-09T09:12:18.108Z,57.30
2022-11-09T09:14:49.073Z,58.67
2022-11-09T09:17:19.778Z,61.62
2022-11-09T09:19:50.680Z,65.69
2022-11-09T09:22:21.715Z,61.05
2022-11-09T09:24:52.592Z,57.33
2022-11-09T09:27:24.053Z,55.75
2022-11-09T09:29:55.095Z,60.29
2022-11-09T09:32:26.432Z,62.47
2022-11-09T09:34:57.573Z,59.39
2022-11-09T09:37:28.211Z,54.05
2022-11-09T09:39:59.103Z,56.12
2022-11-09T09:42:33.045Z,57.94
2022-11-09T09:45:04.908Z,58.56
2022-11-09T09:47:42.157Z,61.59
2022-11-09T09:50:14.268Z,61.60
2022-11-09T09:52:59.337Z,56.09
2022-11-09T09:55:38.966Z,56.43
2022-11-09T09:58:13.204Z,56.38
2022-11-09T10:00:44.500Z,58.34
2022-11-09T10:03:18.333Z,62.88
2022-11-09T10:05:53.567Z,56.63
2022-11-09T10:08:28.244Z,57.68
2022-11-09T10:11:10.401Z,58.21
2022-11-09T10:13:56.116Z,58.37
2022-11-09T10:16:29.694Z,59.41
2022-11-09T10:19:19.975Z,61.49
2022-11-09T10:21:53.826Z,58.63
2022-11-09T10:24:30.352Z,56.32
2022-11-09T10:27:01.918Z,56.73
2022-11-09T10:29:34.913Z,58.52
2022-11-09T10:32:11.053Z,60.13
2022-11-09T10:34:46.733Z,59.75
2022-11-09T10:37:20.129Z,63.31
2022-11-09T10:39:53.764Z,60.57
2022-11-09T10:42:45.730Z,56.34
2022-11-09T10:45:36.325Z,54.70
2022-11-09T10:48:31.692Z,55.71
2022-11-09T10:51:40.839Z,58.24
2022-11-09T10:54:33.392Z,58.99
2022-11-09T10:57:24.113Z,60.00
2022-11-09T11:00:17.712Z,60.67
2022-11-09T11:03:05.453Z,59.42
2022-11-09T11:06:00.295Z,59.17
2022-11-09T11:08:50.316Z,61.67
2022-11-09T11:11:40.432Z,64.90
2022-11-09T11:14:34.160Z,58.88
2022-11-09T11:17:25.605Z,56.72
2022-11-09T11:20:26.987Z,57.67
2022-11-09T11:23:17.546Z,56.69
2022-11-09T11:26:21.025Z,57.94
2022-11-09T11:29:14.761Z,60.19
2022-11-09T11:32:04.610Z,59.67
2022-11-09T11:35:00.329Z,58.99
2022-11-09T11:37:56.286Z,57.17
2022-11-09T11:40:51.888Z,57.92
2022-11-09T11:43:47.350Z,57.76
2022-11-09T11:46:41.195Z,57.85
2022-11-09T11:49:41.490Z,57.49
2022-11-09T11:52:36.248Z,58.02
2022-11-09T11:55:33.960Z,59.05
2022-11-09T11:58:30.910Z,59.80
2022-11-09T12:01:28.251Z,58.20
2022-11-09T12:04:40.834Z,57.07
2022-11-09T12:07:35.633Z,57.68
2022-11-09T12:10:31.592Z,58.90
2022-11-09T12:13:27.192Z,57.94
2022-11-09T12:16:21.262Z,57.73
2022-11-09T12:19:27.131Z,57.15
2022-11-09T12:22:24.673Z,58.82
2022-11-09T12:25:17.630Z,58.45
2022-11-09T12:28:16.130Z,58.60
2022-11-09T12:31:12.415Z,57.02
2022-11-09T12:34:04.184Z,57.94
2022-11-09T12:36:56.136Z,57.09
2022-11-09T12:39:47.288Z,57.56
2022-11-09T12:42:38.622Z,57.78
2022-11-09T12:45:29.442Z,57.60
2022-11-09T12:48:22.180Z,57.81
2022-11-09T12:51:11.816Z,57.39
2022-11-09T12:54:02.631Z,57.67
2022-11-09T12:56:53.260Z,57.46
2022-11-09T12:59:50.172Z,57.66
2022-11-09T13:02:40.819Z,57.50
2022-11-09T13:05:31.926Z,57.33
2022-11-09T13:08:29.536Z,57.14
2022-11-09T13:11:23.289Z,55.90
2022-11-09T13:14:30.741Z,56.30
2022-11-09T13:17:42.821Z,56.32
2022-11-09T13:20:58.662Z,56.24
2022-11-09T13:24:06.956Z,55.06
2022-11-09T13:26:59.708Z,52.43
2022-11-09T13:29:56.561Z,50.98
2022-11-09T13:33:14.141Z,49.06
2022-11-09T13:36:22.594Z,46.90
2022-11-09T13:39:32.367Z,45.74
2022-11-09T13:42:27.344Z,45.58
2022-11-09T13:45:26.027Z,45.23
2022-11-09T13:48:31.583Z,44.46
2022-11-09T13:51:22.222Z,43.79
2022-11-09T13:54:25.166Z,43.64
2022-11-09T13:57:14.133Z,42.98
2022-11-09T14:00:04.225Z,42.53
2022-11-09T14:03:01.102Z,43.37
2022-11-09T14:05:52.477Z,43.70
2022-11-09T14:08:43.563Z,44.45
2022-11-09T14:11:41.967Z,45.07
2022-11-09T14:14:47.211Z,45.90
2022-11-09T14:17:39.248Z,46.88
2022-11-09T14:20:32.494Z,47.65
2022-11-09T14:23:22.690Z,48.39
2022-11-09T14:26:17.743Z,49.15
2022-11-09T14:29:21.304Z,49.87
2022-11-09T14:32:23.792Z,50.55
2022-11-09T14:35:14.126Z,51.36
2022-11-09T14:38:04.323Z,52.02
2022-11-09T14:40:54.607Z,52.69
2022-11-09T14:43:44.941Z,53.26
2022-11-09T14:46:34.368Z,53.84
2022-11-09T14:49:24.712Z,54.50
2022-11-09T14:52:17.694Z,55.39
2022-11-09T14:55:07.335Z,55.71
2022-11-09T14:57:57.491Z,56.26
2022-11-09T15:00:47.036Z,56.73
2022-11-09T15:03:36.591Z,57.24
2022-11-09T15:06:25.535Z,57.84
2022-11-09T15:09:18.796Z,58.38
2022-11-09T15:12:14.431Z,58.75
2022-11-09T15:15:05.629Z,59.14
2022-11-09T15:17:55.280Z,59.87
2022-11-09T15:20:44.626Z,60.22
2022-11-09T15:23:39.235Z,60.71
2022-11-09T15:26:34.114Z,61.23
2022-11-09T15:29:38.453Z,66.57
2022-11-09T15:32:27.852Z,66.77
2022-11-09T15:35:19.268Z,60.87
2022-11-09T15:38:28.730Z,55.76
2022-11-09T15:41:20.129Z,55.08
2022-11-09T15:44:09.423Z,57.79
2022-11-09T15:46:59.077Z,58.44
2022-11-09T15:49:48.799Z,59.12
2022-11-09T15:52:37.911Z,59.90
2022-11-09T15:55:27.390Z,60.82
2022-11-09T15:58:17.436Z,66.22
2022-11-09T16:01:07.086Z,65.42
2022-11-09T16:03:56.421Z,61.81
2022-11-09T16:06:46.946Z,57.06
2022-11-09T16:09:39.705Z,56.56
2022-11-09T16:12:29.245Z,57.77
2022-11-09T16:15:19.161Z,59.71
2022-11-09T16:18:08.693Z,64.68
2022-11-09T16:20:58.781Z,64.98
2022-11-09T16:23:48.303Z,59.24
2022-11-09T16:26:37.130Z,56.41
2022-11-09T16:29:27.886Z,58.57
2022-11-09T16:32:16.990Z,60.87
2022-11-09T16:35:25.974Z,65.62
2022-11-09T16:38:16.712Z,64.46
2022-11-09T16:41:06.390Z,59.24
2022-11-09T16:43:55.904Z,57.54
2022-11-09T16:46:46.475Z,59.42
2022-11-09T16:49:35.980Z,62.06
2022-11-09T16:52:26.241Z,67.34
2022-11-09T16:55:15.686Z,65.19
2022-11-09T16:58:05.071Z,62.26
2022-11-09T17:01:12.531Z,58.44
2022-11-09T17:04:03.292Z,59.01
2022-11-09T17:06:53.022Z,59.99
2022-11-09T17:09:42.879Z,64.37
2022-11-09T17:12:32.257Z,64.80
2022-11-09T17:15:21.836Z,61.50
2022-11-09T17:18:11.197Z,60.32
2022-11-09T17:21:00.812Z,57.40
2022-11-09T17:23:50.032Z,58.64
2022-11-09T17:26:39.354Z,61.82
2022-11-09T17:29:28.711Z,66.23
2022-11-09T17:32:18.817Z,62.82
2022-11-09T17:35:08.685Z,60.03
2022-11-09T17:37:58.665Z,61.00
2022-11-09T17:40:47.933Z,65.05
2022-11-09T17:43:38.337Z,63.38
2022-11-09T17:46:27.633Z,60.32
2022-11-09T17:49:17.298Z,58.42
2022-11-09T17:52:07.470Z,59.75
2022-11-09T17:54:56.932Z,64.74
2022-11-09T17:57:45.857Z,65.72
2022-11-09T18:00:35.095Z,63.14
2022-11-09T18:03:26.060Z,59.92
2022-11-09T18:06:16.358Z,58.65
2022-11-09T18:12:16.600Z,66.36
2022-11-09T18:15:06.426Z,64.81
2022-11-09T18:17:55.818Z,61.50
2022-11-09T18:20:44.716Z,60.98
2022-11-09T18:23:34.395Z,60.42
2022-11-09T18:26:23.192Z,58.13
2022-11-09T18:29:13.028Z,59.33
2022-11-09T18:32:02.196Z,61.48
2022-11-09T18:34:52.287Z,65.42
2022-11-09T18:37:45.751Z,64.81
2022-11-09T18:40:35.349Z,62.02
2022-11-09T18:43:24.690Z,58.82
2022-11-09T18:46:15.191Z,61.16
2022-11-09T18:49:08.891Z,65.20
2022-11-09T18:52:01.098Z,65.88
2022-11-09T18:54:50.905Z,63.16
2022-11-09T18:57:40.468Z,61.35
2022-11-09T19:00:30.026Z,59.94
2022-11-09T19:03:20.256Z,57.64
2022-11-09T19:06:12.720Z,59.36
2022-11-09T19:09:31.113Z,61.83
2022-11-09T19:12:20.632Z,67.58
2022-11-09T19:15:10.711Z,65.18
2022-11-09T19:17:59.931Z,61.70
2022-11-09T19:20:49.724Z,59.51
2022-11-09T19:23:40.565Z,58.91
2022-11-09T19:26:30.051Z,60.41
2022-11-09T19:29:20.183Z,66.27
2022-11-09T19:32:10.254Z,66.32
2022-11-09T19:34:59.634Z,64.49
2022-11-09T19:37:49.037Z,62.95
2022-11-09T19:40:40.025Z,61.59
2022-11-09T19:43:29.246Z,59.71
2022-11-09T19:46:18.757Z,58.66
2022-11-09T19:49:09.410Z,59.73
2022-11-09T19:51:59.230Z,66.80
2022-11-09T19:54:48.509Z,66.72
2022-11-09T19:57:37.716Z,64.33
2022-11-09T20:00:26.608Z,62.13
2022-11-09T20:03:15.791Z,60.33
2022-11-09T20:06:05.711Z,61.10
2022-11-09T20:08:55.504Z,60.72
2022-11-09T20:12:02.332Z,59.17
2022-11-09T20:14:51.233Z,58.95
2022-11-09T20:17:40.463Z,62.68
2022-11-09T20:20:29.580Z,66.10
2022-11-09T20:23:21.774Z,63.51
2022-11-09T20:26:12.053Z,61.58
2022-11-09T20:29:01.534Z,61.10
2022-11-09T20:31:50.794Z,59.59
2022-11-09T20:34:40.815Z,58.91
2022-11-09T20:37:30.166Z,63.41
2022-11-09T20:40:19.370Z,65.88
2022-11-09T20:43:08.634Z,64.04
2022-11-09T20:46:03.681Z,60.39
2022-11-09T20:48:54.965Z,60.22
2022-11-09T20:51:44.979Z,59.97
2022-11-09T20:54:34.112Z,58.96
2022-11-09T20:57:23.446Z,60.92
2022-11-09T21:00:14.258Z,66.16
2022-11-09T21:03:03.776Z,65.42
2022-11-09T21:05:59.162Z,62.79
2022-11-09T21:08:50.130Z,61.44
2022-11-09T21:12:00.675Z,59.14
2022-11-09T21:14:50.213Z,61.41
2022-11-09T21:17:39.213Z,65.87
2022-11-09T21:20:28.934Z,64.18
2022-11-09T21:23:35.581Z,62.79
2022-11-09T21:26:42.436Z,61.27
2022-11-09T21:29:48.678Z,61.05
2022-11-09T21:32:38.163Z,61.30
2022-11-09T21:35:27.089Z,60.56
2022-11-09T21:38:16.993Z,59.24
2022-11-09T21:41:21.136Z,57.34
2022-11-09T21:44:11.638Z,59.08
2022-11-09T21:47:01.224Z,62.12
2022-11-09T21:49:51.065Z,68.87
2022-11-09T21:52:40.316Z,66.33
2022-11-09T21:55:29.611Z,62.36
2022-11-09T21:58:19.002Z,62.48
2022-11-09T22:01:09.782Z,61.93
2022-11-09T22:03:58.719Z,61.30
2022-11-09T22:06:48.152Z,60.60
2022-11-09T22:10:05.949Z,60.04
2022-11-09T22:13:04.757Z,58.20
2022-11-09T22:16:09.900Z,59.96
2022-11-09T22:19:16.775Z,66.36
2022-11-09T22:22:06.155Z,65.08
2022-11-09T22:24:55.275Z,62.44
2022-11-09T22:27:44.381Z,60.52
2022-11-09T22:30:34.054Z,58.30
2022-11-09T22:33:27.289Z,58.34
2022-11-09T22:36:18.175Z,63.52
2022-11-09T22:39:08.206Z,68.19
2022-11-09T22:41:56.965Z,65.79
2022-11-09T22:44:47.261Z,63.17
2022-11-09T22:47:36.217Z,61.40
2022-11-09T22:50:26.342Z,60.30
2022-11-09T22:53:15.360Z,57.54
2022-11-09T22:56:05.753Z,60.45
2022-11-09T22:58:55.046Z,64.97
2022-11-09T23:01:44.760Z,64.95
2022-11-09T23:04:33.879Z,61.73
2022-11-09T23:07:23.743Z,61.04
2022-11-09T23:10:12.929Z,62.07
2022-11-09T23:13:02.628Z,61.78
2022-11-09T23:15:56.262Z,61.11
2022-11-09T23:18:57.550Z,60.52
2022-11-09T23:21:46.520Z,59.24
2022-11-09T23:24:53.461Z,59.21
2022-11-09T23:27:42.771Z,64.25
2022-11-09T23:30:31.712Z,66.58
2022-11-09T23:33:20.899Z,63.51
2022-11-09T23:36:11.366Z,61.94
2022-11-09T23:39:00.298Z,61.59
2022-11-09T23:41:49.874Z,60.43
2022-11-09T23:44:38.652Z,60.81
2022-11-09T23:47:27.952Z,60.76
2022-11-09T23:50:16.883Z,60.71
2022-11-09T23:53:06.226Z,62.06
2022-11-09T23:55:55.554Z,61.83
2022-11-09T23:58:47.920Z,61.65
